Time;durP1;ratioP1;P1;durP2;ratioP2;P2;SDS_P1;SDS_P2;PMS_P1;PMS_P2;Temp;Humidity;BMP_temperature;BMP_pressure;BME280_temperature;BME280_humidity;BME280_pressure;Samples;Min_cycle;Max_cycle;Signal;HPM_P1;HPM_P2
2022/03/15 00:02:15;;;;;;;8.73;4.00;;;;;;;3.35;100.00;102788.38;5055573;28;20040;-74
2022/03/15 00:04:40;;;;;;;11.55;4.22;;;;;;;3.40;100.00;102799.50;5061931;28;20052;-75
2022/03/15 00:07:10;;;;;;;22.40;5.88;;;;;;;3.40;100.00;102804.72;5051348;28;20166;-76
2022/03/15 00:09:36;;;;;;;10.45;4.70;;;;;;;3.35;100.00;102806.63;5052757;28;20524;-76
2022/03/15 00:12:04;;;;;;;14.73;4.72;;;;;;;3.34;100.00;102804.94;5058967;28;20036;-75
2022/03/15 00:14:30;;;;;;;7.70;5.85;;;;;;;3.15;100.00;102782.09;5065730;28;20148;-75
2022/03/15 00:16:56;;;;;;;15.85;5.90;;;;;;;3.23;100.00;102806.19;5057046;28;20029;-75
2022/03/15 00:19:21;;;;;;;17.13;5.45;;;;;;;3.19;100.00;102804.56;5050250;28;20044;-75
2022/03/15 00:21:47;;;;;;;21.27;6.53;;;;;;;3.16;100.00;102802.09;5060549;28;20484;-76
2022/03/15 00:24:13;;;;;;;7.55;4.85;;;;;;;3.13;100.00;102804.78;5051713;28;20037;-76
2022/03/15 00:26:39;;;;;;;11.63;5.15;;;;;;;3.06;100.00;102795.47;5026456;28;20062;-76
2022/03/15 00:29:04;;;;;;;13.25;5.18;;;;;;;3.14;100.00;102803.06;5055558;28;20035;-75
2022/03/15 00:31:30;;;;;;;15.77;5.82;;;;;;;2.97;100.00;102777.53;5057468;28;20470;-76
2022/03/15 00:33:55;;;;;;;8.75;4.55;;;;;;;2.93;100.00;102773.34;5050263;28;20094;-76
2022/03/15 00:36:20;;;;;;;16.60;5.95;;;;;;;3.05;100.00;102796.41;5016672;28;20111;-75
2022/03/15 00:38:46;;;;;;;16.25;6.00;;;;;;;3.06;100.00;102796.31;5065470;28;20047;-75
2022/03/15 00:41:11;;;;;;;15.25;5.47;;;;;;;3.05;100.00;102799.84;5051491;28;20558;-75
2022/03/15 00:43:36;;;;;;;14.25;5.55;;;;;;;3.04;100.00;102790.31;5051643;28;20041;-75
2022/03/15 00:46:02;;;;;;;17.65;6.15;;;;;;;3.05;100.00;102793.78;5054450;28;20481;-75
2022/03/15 00:48:28;;;;;;;12.25;6.60;;;;;;;3.00;100.00;102795.69;5049954;28;20021;-75
2022/03/15 00:50:54;;;;;;;16.92;5.35;;;;;;;3.00;100.00;102791.31;5050891;28;20029;-75
2022/03/15 00:53:19;;;;;;;12.50;5.60;;;;;;;2.97;100.00;102790.59;5050375;28;20036;-76
2022/03/15 00:55:45;;;;;;;14.38;6.47;;;;;;;2.96;100.00;102794.97;5050329;28;20076;-75
2022/03/15 00:58:11;;;;;;;10.45;5.18;;;;;;;2.92;100.00;102779.44;5049509;28;20064;-75
2022/03/15 01:00:36;;;;;;;17.60;5.88;;;;;;;2.96;100.00;102794.09;5033810;28;20025;-75
2022/03/15 01:03:05;;;;;;;10.65;5.35;;;;;;;2.89;100.00;102786.47;5053443;28;20473;-75
2022/03/15 01:05:31;;;;;;;15.45;6.18;;;;;;;2.87;100.00;102801.34;5049813;28;20029;-75
2022/03/15 01:07:56;;;;;;;18.40;5.65;;;;;;;2.82;100.00;102805.00;5047643;28;20025;-74
2022/03/15 01:10:22;;;;;;;14.60;6.20;;;;;;;2.81;100.00;102800.66;5049779;28;20463;-74
2022/03/15 01:12:48;;;;;;;10.15;5.70;;;;;;;2.72;100.00;102801.81;5049728;28;20502;-75
2022/03/15 01:15:13;;;;;;;18.75;5.97;;;;;;;2.74;100.00;102807.00;5049236;28;20036;-75
2022/03/15 01:17:39;;;;;;;13.13;5.07;;;;;;;2.75;100.00;102806.97;5044426;28;20071;-75
2022/03/15 01:20:07;;;;;;;19.25;6.13;;;;;;;2.76;100.00;102805.19;5048039;28;20127;-75
2022/03/15 01:22:33;;;;;;;17.38;5.82;;;;;;;2.77;100.00;102807.75;5054857;28;20028;-75
2022/03/15 01:24:59;;;;;;;13.73;6.85;;;;;;;2.74;100.00;102807.84;5062389;28;20101;-75
2022/03/15 01:27:24;;;;;;;16.08;7.35;;;;;;;2.74;100.00;102807.84;5048939;28;20069;-75
2022/03/15 01:29:49;;;;;;;17.55;7.18;;;;;;;2.71;100.00;102809.72;5048372;28;20024;-74
2022/03/15 01:32:16;;;;;;;14.60;7.22;;;;;;;2.69;100.00;102801.94;5055701;28;20492;-74
2022/03/15 01:34:41;;;;;;;16.23;7.90;;;;;;;2.58;100.00;102788.41;5051939;28;20131;-75
2022/03/15 01:37:07;;;;;;;12.52;5.90;;;;;;;2.64;100.00;102799.50;5050724;28;20485;-74
2022/03/15 01:39:33;;;;;;;14.85;6.75;;;;;;;2.65;100.00;102805.56;5048199;28;20048;-75
2022/03/15 01:41:58;;;;;;;19.73;7.20;;;;;;;2.66;100.00;102797.69;5052185;28;20025;-75
2022/03/15 01:44:26;;;;;;;11.65;6.53;;;;;;;2.70;100.00;102802.78;5054343;28;20174;-75
2022/03/15 01:46:53;;;;;;;15.65;7.47;;;;;;;2.64;100.00;102785.59;5053101;28;20491;-74
2022/03/15 01:49:19;;;;;;;15.55;6.97;;;;;;;2.72;100.00;102796.63;5053085;28;20408;-74
2022/03/15 01:51:46;;;;;;;16.52;6.57;;;;;;;2.73;100.00;102793.13;5052676;28;20023;-74
2022/03/15 01:54:13;;;;;;;17.58;7.00;;;;;;;2.72;100.00;102791.41;5061248;28;20021;-74
2022/03/15 01:56:40;;;;;;;18.60;7.20;;;;;;;2.72;100.00;102796.63;5062170;28;20463;-74
2022/03/15 01:59:10;;;;;;;18.73;8.90;;;;;;;2.71;100.00;102797.53;5053224;28;20024;-74
2022/03/15 02:01:37;;;;;;;17.35;8.18;;;;;;;2.71;100.00;102794.09;5061909;28;20033;-74
2022/03/15 02:04:02;;;;;;;19.30;7.85;;;;;;;2.69;100.00;102794.13;5057392;28;20028;-74
2022/03/15 02:06:28;;;;;;;17.63;7.57;;;;;;;2.72;100.00;102796.63;5061137;28;20029;-75
2022/03/15 02:08:53;;;;;;;15.60;7.55;;;;;;;2.56;100.00;102785.84;5053027;28;20016;-74
2022/03/15 02:11:19;;;;;;;14.13;7.38;;;;;;;2.59;100.00;102792.72;5054629;28;20037;-75
2022/03/15 02:13:45;;;;;;;15.20;6.85;;;;;;;2.53;100.00;102790.34;5055475;28;20040;-74
2022/03/15 02:16:10;;;;;;;16.92;6.88;;;;;;;2.51;100.00;102794.75;5060216;28;20044;-75
2022/03/15 02:18:36;;;;;;;16.48;6.38;;;;;;;2.42;100.00;102783.69;5054519;28;20037;-75
2022/03/15 02:21:02;;;;;;;16.00;7.05;;;;;;;2.34;100.00;102775.28;5063214;28;20032;-75
2022/03/15 02:23:28;;;;;;;15.02;6.63;;;;;;;2.42;100.00;102783.69;5054567;28;20025;-75
2022/03/15 02:25:53;;;;;;;22.20;7.53;;;;;;;2.39;100.00;102781.19;5054517;28;20071;-75
2022/03/15 02:28:18;;;;;;;16.80;7.53;;;;;;;2.35;100.00;102777.00;5058115;28;20043;-75
2022/03/15 02:30:44;;;;;;;11.93;6.88;;;;;;;2.39;100.00;102786.38;5042793;28;20085;-75
2022/03/15 02:33:09;;;;;;;23.45;8.05;;;;;;;2.37;100.00;102777.78;5056417;28;20040;-75
2022/03/15 02:35:35;;;;;;;12.95;7.53;;;;;;;2.36;100.00;102775.22;5055011;28;20070;-75
2022/03/15 02:38:00;;;;;;;15.50;7.18;;;;;;;2.36;100.00;102776.09;5054470;28;20123;-75
2022/03/15 02:40:26;;;;;;;14.00;6.38;;;;;;;2.38;100.00;102766.47;5058243;28;20115;-75
2022/03/15 02:42:51;;;;;;;14.40;7.25;;;;;;;2.38;100.00;102763.84;5063776;28;20046;-74
2022/03/15 02:45:17;;;;;;;14.32;6.03;;;;;;;2.39;100.00;102762.94;5063576;28;20074;-74
2022/03/15 02:47:43;;;;;;;13.27;6.43;;;;;;;2.43;100.00;102764.53;5053477;28;20035;-74
2022/03/15 02:50:09;;;;;;;14.32;7.57;;;;;;;2.45;100.00;102757.53;5054648;28;20036;-74
2022/03/15 02:52:34;;;;;;;19.52;7.82;;;;;;;2.50;100.00;102764.34;5059544;28;20033;-74
2022/03/15 02:54:59;;;;;;;12.18;6.47;;;;;;;2.43;100.00;102748.06;5060316;28;20052;-75
2022/03/15 02:57:25;;;;;;;16.45;6.25;;;;;;;2.54;100.00;102753.75;5047500;28;20032;-75
2022/03/15 02:59:51;;;;;;;14.27;7.15;;;;;;;2.45;100.00;102735.84;5054995;28;20032;-75
2022/03/15 03:02:17;;;;;;;10.45;6.50;;;;;;;2.55;100.00;102749.41;5041276;28;20048;-75
2022/03/15 03:04:43;;;;;;;14.05;7.53;;;;;;;2.56;100.00;102748.50;5060512;28;20025;-75
2022/03/15 03:07:09;;;;;;;13.20;7.35;;;;;;;2.58;100.00;102744.09;5058862;28;20058;-75
2022/03/15 03:09:34;;;;;;;17.45;7.70;;;;;;;2.45;100.00;102720.19;5054967;28;20025;-75
2022/03/15 03:12:00;;;;;;;14.40;7.75;;;;;;;2.51;100.00;102719.16;5060021;28;20116;-75
2022/03/15 03:14:25;;;;;;;16.30;7.20;;;;;;;2.56;100.00;102731.09;5037181;28;20025;-75
2022/03/15 03:16:51;;;;;;;18.92;8.30;;;;;;;2.66;100.00;102744.69;5062746;28;20032;-75
2022/03/15 03:19:17;;;;;;;19.42;9.25;;;;;;;2.66;100.00;102747.31;5060204;28;20059;-75
2022/03/15 03:21:43;;;;;;;17.52;8.73;;;;;;;2.67;100.00;102749.00;5062165;28;20028;-75
2022/03/15 03:24:09;;;;;;;26.85;11.95;;;;;;;2.70;100.00;102741.09;5053950;28;20029;-75
2022/03/15 03:26:38;;;;;;;18.27;9.05;;;;;;;2.73;100.00;102748.78;5054129;28;20176;-75
2022/03/15 03:29:09;;;;;;;18.35;10.23;;;;;;;2.76;100.00;102758.25;5056345;28;20032;-75
2022/03/15 03:31:35;;;;;;;;;;;;;;;2.80;100.00;102763.31;5052125;28;20041;-75
2022/03/15 03:34:00;;;;;;;20.98;9.55;;;;;;;2.76;100.00;102751.28;5059002;28;19962;-75
2022/03/15 03:36:26;;;;;;;19.55;10.20;;;;;;;2.86;100.00;102763.09;5037187;28;20440;-74
2022/03/15 03:38:51;;;;;;;23.63;9.40;;;;;;;2.90;100.00;102758.66;5062755;28;20032;-75
2022/03/15 03:41:17;;;;;;;20.08;11.07;;;;;;;2.93;100.00;102758.53;5054976;28;20029;-74
2022/03/15 03:43:42;;;;;;;24.02;10.60;;;;;;;2.87;100.00;102743.09;5061156;28;20033;-74
2022/03/15 03:46:08;;;;;;;24.45;11.32;;;;;;;3.02;100.00;102758.19;5063517;28;20032;-74
2022/03/15 03:48:34;;;;;;;24.67;11.85;;;;;;;3.07;100.00;102756.31;5059132;28;20408;-74
2022/03/15 03:51:00;;;;;;;25.15;11.05;;;;;;;3.14;100.00;102751.72;5058428;28;20051;-75
2022/03/15 03:53:25;;;;;;;18.10;10.50;;;;;;;3.16;100.00;102738.59;5053209;28;20037;-75
2022/03/15 03:55:51;;;;;;;19.65;11.75;;;;;;;3.21;100.00;102732.31;5055995;28;20082;-74
2022/03/15 03:58:16;;;;;;;21.55;11.32;;;;;;;3.21;100.00;102721.88;5054529;28;20040;-74
2022/03/15 04:00:42;;;;;;;15.88;9.98;;;;;;;3.33;100.00;102735.38;5060163;28;20476;-74
2022/03/15 04:03:08;;;;;;;23.55;10.82;;;;;;;3.33;100.00;102730.16;5055098;28;20093;-75
2022/03/15 04:05:39;;;;;;;21.30;10.75;;;;;;;3.42;100.00;102735.03;5055028;28;20378;-75
2022/03/15 04:08:05;;;;;;;15.50;10.23;;;;;;;3.45;100.00;102733.16;5054762;28;20024;-75
2022/03/15 04:10:32;;;;;;;22.02;10.77;;;;;;;3.44;100.00;102728.00;5055587;28;20032;-75
2022/03/15 04:12:58;;;;;;;18.55;11.57;;;;;;;3.42;100.00;102742.84;5057468;28;20374;-75
2022/03/15 04:15:24;;;;;;;21.90;12.50;;;;;;;3.41;100.00;102739.41;5056281;28;20078;-75
2022/03/15 04:17:50;;;;;;;19.88;9.98;;;;;;;3.43;100.00;102742.81;5063571;28;20774;-75
2022/03/15 04:20:16;;;;;;;20.30;10.25;;;;;;;3.47;100.00;102739.19;5059146;28;20075;-75
2022/03/15 04:22:42;;;;;;;24.45;11.82;;;;;;;3.44;100.00;102722.78;5057405;28;20039;-75
2022/03/15 04:25:08;;;;;;;17.52;10.38;;;;;;;3.56;100.00;102740.59;5057599;28;20037;-75
2022/03/15 04:27:33;;;;;;;24.60;9.95;;;;;;;3.49;100.00;102720.84;5058060;28;20456;-75
2022/03/15 04:29:59;;;;;;;22.13;10.32;;;;;;;3.65;100.00;102737.63;5057726;28;20020;-75
2022/03/15 04:32:24;;;;;;;28.92;11.65;;;;;;;3.69;100.00;102736.59;5054869;28;20020;-75
2022/03/15 04:34:50;;;;;;;22.48;10.98;;;;;;;3.70;100.00;102734.84;5064710;28;20056;-75
2022/03/15 04:37:16;;;;;;;20.00;10.90;;;;;;;3.78;100.00;102737.16;5055113;28;20029;-75
2022/03/15 04:39:41;;;;;;;17.15;10.10;;;;;;;3.78;100.00;102729.31;5055717;28;20041;-75
2022/03/15 04:42:07;;;;;;;19.10;9.73;;;;;;;3.77;100.00;102717.16;5056512;28;20362;-75
2022/03/15 04:44:33;;;;;;;23.80;10.00;;;;;;;3.93;100.00;102741.78;5058075;28;20036;-75
2022/03/15 04:46:59;;;;;;;14.73;8.70;;;;;;;3.97;100.00;102740.75;5054402;28;20043;-75
2022/03/15 04:49:24;;;;;;;19.35;9.25;;;;;;;4.02;100.00;102730.13;5055040;28;20024;-75
2022/03/15 04:51:50;;;;;;;20.30;10.20;;;;;;;4.02;100.00;102738.81;5060461;28;20056;-75
2022/03/15 04:54:16;;;;;;;21.95;9.75;;;;;;;4.02;100.00;102727.50;5055771;28;20032;-75
2022/03/15 04:56:42;;;;;;;15.45;8.20;;;;;;;4.00;100.00;102722.34;5055041;28;20102;-75
2022/03/15 04:59:08;;;;;;;19.38;10.35;;;;;;;4.07;100.00;102728.16;5054560;28;20056;-75
2022/03/15 05:01:34;;;;;;;19.88;10.13;;;;;;;4.05;100.00;102720.41;5057431;28;20036;-75
2022/03/15 05:03:59;;;;;;;22.27;11.50;;;;;;;4.01;100.00;102718.00;5057944;28;20028;-75
2022/03/15 05:06:25;;;;;;;19.70;9.70;;;;;;;3.99;100.00;102710.19;5056190;28;20033;-75
2022/03/15 05:08:50;;;;;;;20.20;11.10;;;;;;;4.00;100.00;102716.28;5057008;28;20061;-75
2022/03/15 05:11:18;;;;;;;16.60;8.98;;;;;;;4.00;100.00;102708.44;5057194;28;20036;-75
2022/03/15 05:13:46;;;;;;;21.00;9.55;;;;;;;4.06;100.00;102711.66;5063565;28;20095;-75
2022/03/15 05:16:20;;;;;;;18.00;9.73;;;;;;;4.07;100.00;102715.97;5058603;28;20088;-75
2022/03/15 05:18:54;;;;;;;21.98;10.32;;;;;;;4.10;100.00;102713.22;5058321;28;20057;-75
2022/03/15 05:21:25;;;;;;;18.60;9.85;;;;;;;4.05;100.00;102698.63;5053866;28;20071;-75
2022/03/15 05:23:52;;;;;;;22.23;11.23;;;;;;;4.08;100.00;102688.91;5061512;28;20031;-75
2022/03/15 05:26:17;;;;;;;16.90;10.40;;;;;;;4.25;100.00;102709.13;5055440;28;20437;-75
2022/03/15 05:28:44;;;;;;;15.07;8.82;;;;;;;4.29;100.00;102717.69;5055765;28;20048;-75
2022/03/15 05:31:10;;;;;;;18.70;9.82;;;;;;;4.28;100.00;102713.38;5056480;28;20040;-76
2022/03/15 05:33:36;;;;;;;18.45;9.43;;;;;;;4.18;100.00;102689.41;5054571;28;20024;-75
2022/03/15 05:36:03;;;;;;;20.92;9.65;;;;;;;4.27;100.00;102704.69;5061662;28;20094;-75
2022/03/15 05:38:28;;;;;;;20.95;9.40;;;;;;;4.26;100.00;102709.97;5057359;28;20099;-75
2022/03/15 05:40:54;;;;;;;21.42;10.95;;;;;;;4.29;100.00;102712.47;5057911;28;20544;-75
2022/03/15 05:43:20;;;;;;;19.67;9.73;;;;;;;4.25;100.00;102703.06;5054619;28;20028;-75
2022/03/15 05:45:46;;;;;;;15.70;11.02;;;;;;;4.26;100.00;102713.44;5060757;28;20032;-75
2022/03/15 05:48:12;;;;;;;25.75;11.32;;;;;;;4.25;100.00;102710.91;5055552;28;20038;-75
2022/03/15 05:50:37;;;;;;;27.85;11.25;;;;;;;4.19;100.00;102711.16;5060051;28;20028;-75
2022/03/15 05:53:06;;;;;;;19.58;10.30;;;;;;;4.07;100.00;102695.06;5059555;28;20025;-75
2022/03/15 05:55:32;;;;;;;28.85;10.98;;;;;;;4.19;100.00;102725.06;5024617;28;20319;-75
2022/03/15 05:57:58;;;;;;;25.38;11.45;;;;;;;4.12;100.00;102702.72;5060717;28;20103;-75
2022/03/15 06:00:24;;;;;;;15.45;10.82;;;;;;;4.18;100.00;102725.13;5057239;28;20048;-75
2022/03/15 06:02:50;;;;;;;18.02;10.18;;;;;;;4.16;100.00;102721.72;5056766;28;20040;-75
2022/03/15 06:05:15;;;;;;;24.27;11.73;;;;;;;4.14;100.00;102719.19;5059011;28;20033;-75
2022/03/15 06:07:52;;;;;;;28.38;12.95;;;;;;;4.14;100.00;102713.97;5056321;28;20029;-75
2022/03/15 06:10:23;;;;;;;21.15;11.10;;;;;;;4.13;100.00;102714.84;5055878;28;20087;-75
2022/03/15 06:12:50;;;;;;;20.30;10.32;;;;;;;4.15;100.00;102709.56;5054349;28;20035;-74
2022/03/15 06:15:17;;;;;;;21.25;10.98;;;;;;;4.10;100.00;102708.00;5048139;28;20742;-75
2022/03/15 06:17:56;;;;;;;23.42;10.88;;;;;;;4.05;100.00;102689.06;5051377;28;20070;-75
2022/03/15 06:20:23;;;;;;;28.42;11.90;;;;;;;4.07;100.00;102697.69;5045329;28;20486;-75
2022/03/15 06:22:48;;;;;;;17.05;9.90;;;;;;;4.09;100.00;102697.59;5035133;28;20112;-74
2022/03/15 06:25:15;;;;;;;16.52;10.63;;;;;;;4.15;100.00;102713.03;5052797;28;20560;-74
2022/03/15 06:27:40;;;;;;;20.73;11.25;;;;;;;4.17;100.00;102707.75;5052242;28;20080;-75
2022/03/15 06:30:07;;;;;;;16.50;11.15;;;;;;;4.14;100.00;102711.34;5056838;28;20056;-74
2022/03/15 06:32:33;;;;;;;26.92;12.45;;;;;;;4.13;100.00;102707.84;5058353;28;20167;-74
2022/03/15 06:34:59;;;;;;;16.45;10.25;;;;;;;4.13;100.00;102702.63;5039233;28;20548;-74
2022/03/15 06:37:25;;;;;;;25.60;13.13;;;;;;;4.13;100.00;102713.09;5058553;28;20040;-74
2022/03/15 06:39:51;;;;;;;24.35;11.98;;;;;;;4.13;100.00;102705.25;5059149;28;20384;-74
2022/03/15 06:42:17;;;;;;;18.48;11.23;;;;;;;4.07;100.00;102700.28;5052583;28;20040;-75
2022/03/15 06:44:44;;;;;;;22.00;11.98;;;;;;;4.19;100.00;102717.22;5054761;28;20059;-75
2022/03/15 06:47:10;;;;;;;25.38;13.18;;;;;;;4.15;100.00;102704.34;5056199;28;20154;-75
2022/03/15 06:49:36;;;;;;;26.00;12.73;;;;;;;4.19;100.00;102717.22;5058454;28;21068;-75
2022/03/15 06:52:01;;;;;;;23.17;12.40;;;;;;;4.27;100.00;102711.69;5057560;28;20138;-75
2022/03/15 06:54:27;;;;;;;22.98;12.68;;;;;;;4.31;100.00;102715.84;5058980;28;20514;-75
2022/03/15 06:56:53;;;;;;;20.05;12.75;;;;;;;4.15;100.00;102688.66;5052457;28;20252;-75
2022/03/15 06:59:20;;;;;;;28.33;13.00;;;;;;;4.38;100.00;102716.44;5057902;28;20413;-75
2022/03/15 07:01:46;;;;;;;20.40;12.93;;;;;;;4.43;100.00;102710.13;5050985;28;20396;-75
2022/03/15 07:04:11;;;;;;;31.58;13.48;;;;;;;4.46;100.00;102699.53;5053916;28;20028;-76
2022/03/15 07:06:36;;;;;;;30.60;13.38;;;;;;;4.50;100.00;102698.50;5053439;28;20044;-76
2022/03/15 07:09:02;;;;;;;26.85;13.55;;;;;;;4.52;100.00;102699.28;5057682;28;20044;-76
2022/03/15 07:11:28;;;;;;;25.75;12.88;;;;;;;4.63;100.00;102713.66;5057881;28;20037;-76
2022/03/15 07:13:53;;;;;;;24.45;12.35;;;;;;;4.68;100.00;102711.69;5058128;28;20381;-76
2022/03/15 07:16:19;;;;;;;29.92;15.02;;;;;;;4.74;100.00;102706.22;5059012;28;20469;-76
2022/03/15 07:18:45;;;;;;;33.20;15.05;;;;;;;4.77;100.00;102706.09;5058598;28;20025;-76
2022/03/15 07:21:11;;;;;;;32.53;13.80;;;;;;;4.84;100.00;102704.06;5058512;28;20069;-76
2022/03/15 07:23:36;;;;;;;26.27;14.05;;;;;;;4.89;100.00;102702.91;5058224;28;20028;-75
2022/03/15 07:26:01;;;;;;;25.50;14.50;;;;;;;4.97;100.00;102702.59;5059767;28;20057;-75
2022/03/15 07:28:27;;;;;;;31.45;16.33;;;;;;;5.01;100.00;102705.91;5055759;28;20020;-76
2022/03/15 07:30:52;;;;;;;24.23;14.32;;;;;;;5.04;100.00;102703.16;5060086;28;20025;-76
2022/03/15 07:33:17;;;;;;;31.38;15.38;;;;;;;5.12;100.00;102704.53;5058527;28;20400;-76
2022/03/15 07:35:43;;;;;;;33.22;17.10;;;;;;;5.10;100.00;102687.19;5059636;28;20028;-77
2022/03/15 07:38:08;;;;;;;28.88;15.38;;;;;;;5.23;100.00;102701.44;5058252;28;20111;-77
2022/03/15 07:40:34;;;;;;;25.73;15.05;;;;;;;5.33;100.00;102707.94;5035828;28;20049;-76
2022/03/15 07:42:59;;;;;;;27.05;15.13;;;;;;;5.42;100.00;102698.81;5059261;28;20452;-76
2022/03/15 07:45:25;;;;;;;32.25;17.23;;;;;;;5.37;100.00;102682.47;5057019;28;20373;-76
2022/03/15 07:47:51;;;;;;;30.63;16.23;;;;;;;5.51;100.00;102694.94;5057405;28;20488;-76
2022/03/15 07:50:17;;;;;;;34.17;16.17;;;;;;;5.56;100.00;102692.94;5058817;28;20426;-77
2022/03/15 07:52:43;;;;;;;30.23;15.90;;;;;;;5.60;100.00;102694.50;5055649;28;20552;-77
2022/03/15 07:55:11;;;;;;;30.48;15.65;;;;;;;5.66;100.00;102694.22;5057149;28;20036;-76
2022/03/15 07:57:37;;;;;;;34.38;15.23;;;;;;;5.63;100.00;102678.63;5057637;28;20237;-76
2022/03/15 08:00:03;;;;;;;35.28;15.65;;;;;;;5.64;100.00;102663.75;5058184;28;20493;-76
2022/03/15 08:02:28;;;;;;;26.55;15.25;;;;;;;5.81;100.00;102691.75;5059318;28;20032;-76
2022/03/15 08:04:55;;;;;;;30.55;16.20;;;;;;;5.66;100.00;102662.78;5058153;28;20024;-76
2022/03/15 08:07:22;;;;;;;28.17;16.63;;;;;;;5.87;100.00;102689.69;5038594;28;20504;-76
2022/03/15 08:09:47;;;;;;;30.90;16.35;;;;;;;5.86;100.00;102684.53;5058319;28;20029;-76
2022/03/15 08:12:13;;;;;;;29.80;16.10;;;;;;;5.91;100.00;102687.78;5058002;28;20043;-76
2022/03/15 08:14:38;;;;;;;32.15;15.65;;;;;;;5.93;100.00;102681.53;5060663;28;20127;-76
2022/03/15 08:17:04;;;;;;;28.20;16.33;;;;;;;5.97;100.00;102688.34;5058698;28;20159;-76
2022/03/15 08:19:30;;;;;;;29.30;14.63;;;;;;;5.96;100.00;102683.19;5058480;28;20123;-76
2022/03/15 08:21:57;;;;;;;35.40;15.57;;;;;;;6.04;100.00;102686.28;5061711;28;20032;-76
2022/03/15 08:24:23;;;;;;;33.25;17.08;;;;;;;6.01;100.00;102683.81;5058509;28;20025;-76
2022/03/15 08:26:48;;;;;;;30.08;15.07;;;;;;;6.10;100.00;102688.59;5057749;28;20051;-77
2022/03/15 08:29:14;;;;;;;34.33;16.70;;;;;;;6.03;100.00;102676.75;5059096;28;20517;-77
2022/03/15 08:31:39;;;;;;;28.45;15.65;;;;;;;6.24;100.00;102687.06;5058687;28;20059;-76
2022/03/15 08:34:04;;;;;;;31.77;15.10;;;;;;;6.30;100.00;102674.50;5052859;28;20035;-76
2022/03/15 08:36:30;;;;;;;25.33;14.38;;;;;;;6.28;100.00;102681.59;5036148;28;20082;-76
2022/03/15 08:38:56;;;;;;;33.08;14.30;;;;;;;6.33;100.00;102679.56;5057401;28;20503;-77
2022/03/15 08:41:21;;;;;;;31.08;16.08;;;;;;;6.35;100.00;102674.25;5055834;28;20400;-76
2022/03/15 08:43:46;;;;;;;30.05;15.63;;;;;;;6.35;100.00;102676.88;5055081;28;20021;-76
2022/03/15 08:46:12;;;;;;;25.80;13.13;;;;;;;6.33;100.00;102670.88;5053495;28;20108;-76
2022/03/15 08:48:37;;;;;;;28.45;14.73;;;;;;;6.29;100.00;102650.97;5053797;28;20477;-77
2022/03/15 08:51:03;;;;;;;30.33;15.88;;;;;;;6.24;100.00;102642.50;5053617;28;20429;-76
2022/03/15 08:53:32;;;;;;;32.63;16.30;;;;;;;6.39;100.00;102673.19;5055989;28;20678;-76
2022/03/15 08:55:59;;;;;;;27.23;15.27;;;;;;;6.32;100.00;102646.44;5038587;28;20036;-76
2022/03/15 08:58:24;;;;;;;34.10;16.63;;;;;;;6.49;100.00;102682.28;5039006;28;20037;-76
2022/03/15 09:00:50;;;;;;;33.20;16.75;;;;;;;6.48;100.00;102680.59;5058299;28;20107;-76
2022/03/15 09:03:17;;;;;;;32.47;16.40;;;;;;;6.54;100.00;102680.28;5054676;28;20032;-76
2022/03/15 09:05:43;;;;;;;27.80;15.55;;;;;;;6.64;100.00;102682.41;5054893;28;20124;-77
2022/03/15 09:08:08;;;;;;;31.33;16.42;;;;;;;6.69;100.00;102675.16;5061075;28;20111;-76
2022/03/15 09:10:34;;;;;;;30.77;15.13;;;;;;;6.61;100.00;102672.94;5052607;28;20029;-76
2022/03/15 09:12:59;;;;;;;30.55;15.00;;;;;;;6.76;100.00;102677.38;5034051;28;20484;-77
2022/03/15 09:15:25;;;;;;;29.88;15.93;;;;;;;6.79;100.00;102681.63;5056896;28;20025;-76
2022/03/15 09:17:51;;;;;;;27.55;15.35;;;;;;;6.79;100.00;102668.50;5054340;28;20414;-77
2022/03/15 09:20:16;;;;;;;31.05;16.48;;;;;;;6.75;100.00;102652.09;5039183;28;20396;-76
2022/03/15 09:22:42;;;;;;;29.08;15.23;;;;;;;6.86;100.00;102664.63;5056627;28;20029;-76
2022/03/15 09:25:08;;;;;;;32.15;16.33;;;;;;;6.92;100.00;102663.44;5052169;28;20024;-77
2022/03/15 09:27:33;;;;;;;34.65;17.23;;;;;;;6.92;100.00;102651.16;5056889;28;20132;-76
2022/03/15 09:29:59;;;;;;;29.05;14.48;;;;;;;6.96;100.00;102657.94;5056469;28;20112;-76
2022/03/15 09:32:25;;;;;;;31.88;16.05;;;;;;;6.97;100.00;102658.81;5054328;28;20456;-76
2022/03/15 09:34:51;;;;;;;29.88;16.23;;;;;;;6.92;100.00;102651.16;5053175;28;20028;-76
2022/03/15 09:37:16;;;;;;;35.88;17.10;;;;;;;6.98;100.00;102650.00;5058284;28;20027;-77
2022/03/15 09:39:42;;;;;;;30.08;17.27;;;;;;;7.03;100.00;102652.38;5057058;28;20125;-76
2022/03/15 09:42:08;;;;;;;26.45;16.08;;;;;;;7.10;100.00;102653.72;5055337;28;20370;-76
2022/03/15 09:44:37;;;;;;;34.90;16.23;;;;;;;7.26;100.00;102644.09;5058205;28;20033;-77
2022/03/15 09:47:05;;;;;;;28.92;15.65;;;;;;;7.31;100.00;102625.47;5054605;28;20027;-77
2022/03/15 09:49:33;;;;;;;31.55;16.50;;;;;;;7.43;100.00;102629.19;5057089;28;20070;-77
2022/03/15 09:52:00;;;;;;;29.83;15.82;;;;;;;7.56;100.00;102641.56;5051968;28;20021;-76
2022/03/15 09:54:26;;;;;;;29.13;15.90;;;;;;;7.62;100.00;102608.81;5055120;28;20024;-76
2022/03/15 09:56:53;;;;;;;33.33;16.08;;;;;;;7.85;100.00;102630.31;5055984;28;20519;-76
2022/03/15 09:59:21;;;;;;;28.98;15.23;;;;;;;8.01;100.00;102620.59;5054936;28;20037;-77
2022/03/15 10:01:51;;;;;;;27.75;15.57;;;;;;;8.10;99.84;102606.94;5059414;28;20041;-77
2022/03/15 10:04:21;;;;;;;29.10;15.23;;;;;;;8.47;99.23;102617.91;5058987;28;20047;-76
2022/03/15 10:06:47;;;;;;;26.47;14.97;;;;;;;8.61;96.11;102604.75;5058972;28;20067;-77
2022/03/15 10:09:14;;;;;;;28.30;16.17;;;;;;;8.90;93.80;102614.41;5055464;28;20244;-77
2022/03/15 10:11:40;;;;;;;31.65;15.18;;;;;;;9.19;92.44;102609.94;5061402;28;20024;-77
2022/03/15 10:14:06;;;;;;;28.77;14.95;;;;;;;9.21;91.15;102608.03;5057147;28;20039;-78
2022/03/15 10:16:32;;;;;;;26.23;14.82;;;;;;;9.29;89.38;102604.94;5060229;28;20021;-76
2022/03/15 10:18:59;;;;;;;27.67;15.45;;;;;;;9.39;89.77;102604.25;5055608;28;20405;-76
2022/03/15 10:21:38;;;;;;;20.73;12.43;;;;;;;9.14;89.94;102606.75;5061469;28;20265;-76
2022/03/15 10:24:06;;;;;;;27.83;14.85;;;;;;;9.50;90.71;102605.34;5054239;28;20098;-77
2022/03/15 10:26:37;;;;;;;23.73;14.35;;;;;;;9.38;89.79;102605.16;5055841;28;20028;-77
2022/03/15 10:29:02;;;;;;;26.08;16.10;;;;;;;9.59;89.59;102602.09;5060659;28;20024;-77
2022/03/15 10:31:29;;;;;;;29.33;14.13;;;;;;;9.53;88.60;102603.34;5055822;28;20033;-76
2022/03/15 10:34:00;;;;;;;26.98;15.70;;;;;;;9.54;89.03;102598.91;5054792;28;20036;-77
2022/03/15 10:36:26;;;;;;;23.60;13.40;;;;;;;9.48;87.73;102595.72;5058023;28;20028;-77
2022/03/15 10:38:52;;;;;;;22.75;13.75;;;;;;;9.63;88.04;102591.25;5055958;28;20041;-77
2022/03/15 10:41:19;;;;;;;23.20;13.57;;;;;;;9.47;88.15;102578.25;5054733;28;20032;-77
2022/03/15 10:43:53;;;;;;;22.23;14.20;;;;;;;9.44;88.34;102594.25;5057467;28;20048;-77
2022/03/15 10:46:22;;;;;;;23.20;14.10;;;;;;;9.45;89.57;102589.81;5054896;28;20047;-77
2022/03/15 10:49:01;;;;;;;26.83;15.02;;;;;;;9.17;89.01;102580.22;5057226;28;20602;-77
2022/03/15 10:51:27;;;;;;;28.88;15.82;;;;;;;9.23;90.77;102587.72;5051732;28;20032;-77
2022/03/15 10:54:03;;;;;;;20.92;14.27;;;;;;;9.16;89.94;102589.06;5060355;28;20120;-77
2022/03/15 10:56:30;;;;;;;22.95;13.68;;;;;;;9.37;90.44;102563.97;5052125;28;20092;-77
2022/03/15 10:59:05;;;;;;;24.40;14.77;;;;;;;9.77;90.82;102573.66;5053137;28;20037;-77
2022/03/15 11:01:39;;;;;;;23.60;13.80;;;;;;;9.68;87.61;102551.41;5061288;28;20363;-78
2022/03/15 11:04:10;;;;;;;25.38;13.20;;;;;;;9.90;87.65;102566.63;5064535;28;20075;-77
2022/03/15 11:06:41;;;;;;;22.80;13.35;;;;;;;9.86;87.45;102568.63;5060680;28;20029;-77
2022/03/15 11:09:25;;;;;;;25.55;13.98;;;;;;;9.84;88.74;102567.03;5055441;28;20253;-77
2022/03/15 11:12:06;;;;;;;24.27;14.45;;;;;;;9.75;88.45;102559.75;5039456;28;20025;-77